createdAt,value
2017-06-17T00:00:34.789Z,91.47
2017-06-17T00:01:47.679Z,91.09
2017-06-17T00:03:00.077Z,91.66
2017-06-17T00:04:12.483Z,92.05
2017-06-17T00:05:25.374Z,91.96
2017-06-17T00:06:38.465Z,92.14
2017-06-17T00:07:51.357Z,92.14
2017-06-17T00:09:04.262Z,91.76
2017-06-17T00:10:16.664Z,92.33
2017-06-17T00:11:29.559Z,92.33
2017-06-17T00:12:42.453Z,92.29
2017-06-17T00:13:55.355Z,92.53
2017-06-17T00:15:08.245Z,92.29
2017-06-17T00:16:20.650Z,92.24
2017-06-17T00:17:33.257Z,92.53
2017-06-17T00:18:46.148Z,92.68
2017-06-17T00:19:59.041Z,93.39
2017-06-17T00:21:11.937Z,93.15
2017-06-17T00:22:24.346Z,93.92
2017-06-17T00:23:36.754Z,93.54
2017-06-17T00:24:49.645Z,93.44
2017-06-17T00:26:02.538Z,93.63
2017-06-17T00:27:15.436Z,93.63
2017-06-17T00:28:28.332Z,94.02
2017-06-17T00:29:41.255Z,93.92
2017-06-17T00:30:53.657Z,93.44
2017-06-17T00:32:06.554Z,93.92
2017-06-17T00:33:19.449Z,94.21
2017-06-17T00:34:32.345Z,94.31
2017-06-17T00:35:45.235Z,94.21
2017-06-17T00:36:58.126Z,94.21
2017-06-17T00:38:10.529Z,94.21
2017-06-17T00:39:23.619Z,95.07
2017-06-17T00:40:36.509Z,94.21
2017-06-17T00:41:49.410Z,94.4
2017-06-17T00:43:01.815Z,94.49
2017-06-17T00:44:14.712Z,94.31
2017-06-17T00:45:27.116Z,94.98
2017-06-17T00:46:40.026Z,94.49
2017-06-17T00:47:52.916Z,95.07
2017-06-17T00:49:05.320Z,94.98
2017-06-17T00:50:18.417Z,94.59
2017-06-17T00:51:31.311Z,94.79
2017-06-17T00:52:44.199Z,95.36
2017-06-17T00:53:57.089Z,95.36
2017-06-17T00:55:09.988Z,95.36
2017-06-17T00:56:22.399Z,94.69
2017-06-17T00:57:35.301Z,94.69
2017-06-17T00:58:47.706Z,94.69
2017-06-17T01:00:00.600Z,94.12
2017-06-17T01:01:13.001Z,94.31
2017-06-17T01:02:25.893Z,94.31
2017-06-17T01:03:38.822Z,94.79
2017-06-17T01:04:51.741Z,94.98
2017-06-17T01:06:04.375Z,95.17
2017-06-17T01:07:17.268Z,95.75
2017-06-17T01:08:30.163Z,95.94
2017-06-17T01:09:43.054Z,95.94
2017-06-17T01:10:55.951Z,95.65
2017-06-17T01:12:08.563Z,95.17
2017-06-17T01:13:21.468Z,95.46
2017-06-17T01:14:34.358Z,95.17
2017-06-17T01:15:46.765Z,95.75
2017-06-17T01:16:59.663Z,96.22
2017-06-17T01:18:12.559Z,96.13
2017-06-17T01:19:24.477Z,96.18
2017-06-17T01:20:37.368Z,96.13
2017-06-17T01:21:50.267Z,95.89
2017-06-17T01:23:03.167Z,95.75
2017-06-17T01:24:16.066Z,95.98
2017-06-17T01:25:28.961Z,96.32
2017-06-17T01:26:41.368Z,96.13
2017-06-17T01:27:54.258Z,96.7
2017-06-17T01:29:07.155Z,96.37
2017-06-17T01:30:19.561Z,96.27
2017-06-17T01:31:31.966Z,96.56
2017-06-17T01:32:44.857Z,96.94
2017-06-17T01:33:57.292Z,96.94
2017-06-17T01:35:10.184Z,96.94
2017-06-17T01:36:22.583Z,96.85
2017-06-17T01:37:34.501Z,97.61
2017-06-17T01:38:47.395Z,97.81
2017-06-17T01:40:00.290Z,97.9
2017-06-17T01:41:13.191Z,97.81
2017-06-17T01:42:26.087Z,97.81
2017-06-17T01:43:38.986Z,97.42
2017-06-17T01:44:51.919Z,97.42
2017-06-17T01:46:04.841Z,96.85
2017-06-17T01:47:17.749Z,96.94
2017-06-17T01:48:30.701Z,96.66
2017-06-17T01:49:43.651Z,96.66
2017-06-17T01:50:56.133Z,96.66
2017-06-17T01:52:08.609Z,97.14
2017-06-17T01:53:21.639Z,96.85
2017-06-17T01:54:33.557Z,96.75
2017-06-17T01:55:46.466Z,97.61
2017-06-17T01:56:59.355Z,97.14
2017-06-17T01:58:11.528Z,97.33
2017-06-17T01:59:23.614Z,97.42
2017-06-17T02:00:36.779Z,97.52
2017-06-17T02:01:49.968Z,97.42
2017-06-17T02:03:03.191Z,97.81
2017-06-17T02:04:16.470Z,97.9
2017-06-17T02:05:29.739Z,98.1
2017-06-17T02:06:42.867Z,98.38
2017-06-17T02:07:55.875Z,98.96
2017-06-17T02:09:08.840Z,99.24
2017-06-17T02:10:21.137Z,99.34
2017-06-17T02:11:33.960Z,99.73
2017-06-17T02:12:46.851Z,99.53
2017-06-17T02:13:59.394Z,99.82
2017-06-17T02:15:11.917Z,99.82
2017-06-17T02:16:24.687Z,99.44
2017-06-17T02:17:37.507Z,99.44
2017-06-17T02:18:50.021Z,99.34
2017-06-17T02:20:02.426Z,99.24
2017-06-17T02:21:15.462Z,98.77
2017-06-17T02:22:27.878Z,99.44
2017-06-17T02:23:40.881Z,99.44
2017-06-17T02:24:53.361Z,99.24
2017-06-17T02:26:06.418Z,99.05
2017-06-17T02:27:19.324Z,99.15
2017-06-17T02:28:31.620Z,99.24
2017-06-17T02:29:44.391Z,99.24
2017-06-17T02:30:56.208Z,99.34
2017-06-17T02:32:08.548Z,99.44
2017-06-17T02:33:21.170Z,99.24
2017-06-17T02:34:34.102Z,99.24
2017-06-17T02:35:46.527Z,99.53
2017-06-17T02:36:58.949Z,99.24
2017-06-17T02:38:10.880Z,99.53
2017-06-17T02:39:23.996Z,99.1
2017-06-17T02:40:36.913Z,99.24
2017-06-17T02:41:49.831Z,99.73
2017-06-17T02:43:02.731Z,99.48
2017-06-17T02:44:15.830Z,99.48
2017-06-17T02:45:28.721Z,99.68
2017-06-17T02:46:41.616Z,99.48
2017-06-17T02:47:54.508Z,99.58
2017-06-17T02:49:06.910Z,99.68
2017-06-17T02:50:19.802Z,99.99
2017-06-17T02:51:32.695Z,99.96
2017-06-17T02:52:45.587Z,99.96
2017-06-17T02:53:57.993Z,99.99
2017-06-17T02:55:10.882Z,99.99
2017-06-17T02:56:22.797Z,99.99
2017-06-17T02:57:35.692Z,99.77
2017-06-17T02:58:48.583Z,99.96
2017-06-17T03:00:01.022Z,99.96
2017-06-17T03:01:13.140Z,99.77
2017-06-17T03:02:26.037Z,99.96
2017-06-17T03:03:38.929Z,99.99
2017-06-17T03:04:51.820Z,99.99
2017-06-17T03:06:04.909Z,99.99
2017-06-17T03:07:17.316Z,99.99
2017-06-17T03:08:29.730Z,99.99
2017-06-17T03:09:42.624Z,99.99
2017-06-17T03:10:55.524Z,99.99
2017-06-17T03:12:08.129Z,99.99
2017-06-17T03:13:20.533Z,99.99
2017-06-17T03:14:33.426Z,99.99
2017-06-17T03:15:45.826Z,99.99
2017-06-17T03:16:58.716Z,99.99
2017-06-17T03:18:11.607Z,99.99
2017-06-17T03:19:24.034Z,99.99
2017-06-17T03:20:37.010Z,99.99
2017-06-17T03:21:49.986Z,99.99
2017-06-17T03:23:02.966Z,99.99
2017-06-17T03:24:15.943Z,99.99
2017-06-17T03:25:27.931Z,99.99
2017-06-17T03:26:40.910Z,99.99
2017-06-17T03:27:53.884Z,99.99
2017-06-17T03:29:05.873Z,99.99
2017-06-17T03:30:18.357Z,99.99
2017-06-17T03:31:31.338Z,99.99
2017-06-17T03:32:44.316Z,99.99
2017-06-17T03:33:57.493Z,99.99
2017-06-17T03:35:10.474Z,99.99
2017-06-17T03:36:22.961Z,99.99
2017-06-17T03:37:35.945Z,99.77
2017-06-17T03:38:49.124Z,99.99
2017-06-17T03:40:02.100Z,99.99
2017-06-17T03:41:14.589Z,99.99
2017-06-17T03:42:27.069Z,99.99
2017-06-17T03:43:39.054Z,99.99
2017-06-17T03:44:52.227Z,99.99
2017-06-17T03:46:04.706Z,99.99
2017-06-17T03:47:16.696Z,99.99
2017-06-17T03:48:29.672Z,99.99
2017-06-17T03:49:42.848Z,99.99
2017-06-17T03:50:55.823Z,99.99
2017-06-17T03:52:08.800Z,99.99
2017-06-17T03:53:21.788Z,99.99
2017-06-17T03:54:34.826Z,99.99
2017-06-17T03:55:48.062Z,99.99
2017-06-17T03:57:01.099Z,99.99
2017-06-17T03:58:13.132Z,99.99
2017-06-17T03:59:26.166Z,99.99
2017-06-17T04:00:39.397Z,99.99
2017-06-17T04:01:51.934Z,99.99
2017-06-17T04:03:04.968Z,99.99
2017-06-17T04:04:17.999Z,99.99
2017-06-17T04:05:31.032Z,99.99
2017-06-17T04:06:44.267Z,99.99
2017-06-17T04:07:57.302Z,99.99
2017-06-17T04:09:10.365Z,99.99
2017-06-17T04:10:22.403Z,99.99
2017-06-17T04:11:35.400Z,99.99
2017-06-17T04:12:48.335Z,99.99
2017-06-17T04:14:01.251Z,99.99
2017-06-17T04:15:13.181Z,99.99
2017-06-17T04:16:26.094Z,99.99
2017-06-17T04:17:39.186Z,99.99
2017-06-17T04:18:50.995Z,99.99
2017-06-17T04:20:03.285Z,99.99
2017-06-17T04:21:14.617Z,99.99
2017-06-17T04:22:27.595Z,99.99
2017-06-17T04:23:40.378Z,99.99
2017-06-17T04:24:53.150Z,99.99
2017-06-17T04:26:04.961Z,99.99
2017-06-17T04:27:17.252Z,99.99
2017-06-17T04:28:29.747Z,99.99
2017-06-17T04:29:42.520Z,99.99
2017-06-17T04:30:55.299Z,99.99
2017-06-17T04:32:08.074Z,99.99
2017-06-17T04:33:21.063Z,99.99
2017-06-17T04:34:33.842Z,99.99
2017-06-17T04:35:46.617Z,99.99
2017-06-17T04:36:58.430Z,99.99
2017-06-17T04:38:11.207Z,99.99
2017-06-17T04:39:23.993Z,99.99
2017-06-17T04:40:36.293Z,99.99
2017-06-17T04:41:49.069Z,99.99
2017-06-17T04:43:01.843Z,99.99
2017-06-17T04:44:14.822Z,99.99
2017-06-17T04:45:27.598Z,99.99
2017-06-17T04:46:40.378Z,99.99
2017-06-17T04:47:53.162Z,99.99
2017-06-17T04:49:05.943Z,99.99
2017-06-17T04:50:18.438Z,99.99
2017-06-17T04:51:30.252Z,99.99
2017-06-17T04:52:43.056Z,99.99
2017-06-17T04:53:55.832Z,99.99
2017-06-17T04:55:08.609Z,99.99
2017-06-17T04:56:21.431Z,99.99
2017-06-17T04:57:34.329Z,99.99
2017-06-17T04:58:46.737Z,99.99
2017-06-17T04:59:59.143Z,99.99
2017-06-17T05:01:11.756Z,99.99
2017-06-17T05:02:24.653Z,99.99
2017-06-17T05:03:37.547Z,99.99
2017-06-17T05:04:50.440Z,99.99
2017-06-17T05:06:03.537Z,99.99
2017-06-17T05:07:15.944Z,99.99
2017-06-17T05:08:27.861Z,99.99
2017-06-17T05:09:40.756Z,99.99
2017-06-17T05:10:53.652Z,99.99
2017-06-17T05:12:06.051Z,99.99
2017-06-17T05:13:18.946Z,99.99
2017-06-17T05:14:31.354Z,99.99
2017-06-17T05:15:44.249Z,99.99
2017-06-17T05:16:57.146Z,99.99
2017-06-17T05:18:10.047Z,99.99
2017-06-17T05:19:22.937Z,99.99
2017-06-17T05:20:35.845Z,99.99
2017-06-17T05:21:48.767Z,99.99
2017-06-17T05:23:01.863Z,99.99
2017-06-17T05:24:14.288Z,99.99
2017-06-17T05:25:26.739Z,99.99
2017-06-17T05:26:39.628Z,99.99
2017-06-17T05:27:52.517Z,99.99
2017-06-17T05:29:04.972Z,99.99
2017-06-17T05:30:17.879Z,99.99
2017-06-17T05:31:30.793Z,99.99
2017-06-17T05:32:43.216Z,99.99
2017-06-17T05:33:56.281Z,99.99
2017-06-17T05:35:09.339Z,99.99
2017-06-17T05:36:22.487Z,99.99
2017-06-17T05:37:35.620Z,99.99
2017-06-17T05:38:48.947Z,99.99
2017-06-17T05:40:02.155Z,99.99
2017-06-17T05:41:15.315Z,99.99
2017-06-17T05:42:28.463Z,99.99
2017-06-17T05:43:40.627Z,99.99
2017-06-17T05:44:53.882Z,99.99
2017-06-17T05:46:06.441Z,99.99
2017-06-17T05:47:18.918Z,99.99
2017-06-17T05:48:31.348Z,99.99
2017-06-17T05:49:44.255Z,99.99
2017-06-17T05:50:56.704Z,99.99
2017-06-17T05:52:09.630Z,99.99
2017-06-17T05:53:22.105Z,99.99
2017-06-17T05:54:35.010Z,99.99
2017-06-17T05:55:48.121Z,99.99
2017-06-17T05:57:00.542Z,99.99
2017-06-17T05:58:13.456Z,99.99
2017-06-17T05:59:26.362Z,99.99
2017-06-17T06:00:39.470Z,99.99
2017-06-17T06:01:52.383Z,99.99
2017-06-17T06:03:05.320Z,99.99
2017-06-17T06:04:18.311Z,99.99
2017-06-17T06:05:30.828Z,99.99
2017-06-17T06:06:43.478Z,99.99
2017-06-17T06:07:56.393Z,99.99
2017-06-17T06:09:09.304Z,99.99
2017-06-17T06:10:22.214Z,99.99
2017-06-17T06:11:35.137Z,99.99
2017-06-17T06:12:48.047Z,99.99
2017-06-17T06:14:00.957Z,99.99
2017-06-17T06:15:13.409Z,99.99
2017-06-17T06:16:26.318Z,99.99
2017-06-17T06:17:39.426Z,99.99
2017-06-17T06:18:52.339Z,99.99
2017-06-17T06:20:05.246Z,99.99
2017-06-17T06:21:17.668Z,99.99
2017-06-17T06:22:30.785Z,99.99
2017-06-17T06:23:43.695Z,99.99
2017-06-17T06:24:56.607Z,99.99
2017-06-17T06:26:08.979Z,99.99
2017-06-17T06:27:21.751Z,99.99
2017-06-17T06:28:34.724Z,99.99
2017-06-17T06:29:47.494Z,99.99
2017-06-17T06:31:00.269Z,99.99
2017-06-17T06:32:12.576Z,99.99
2017-06-17T06:33:25.381Z,99.99
2017-06-17T06:34:38.174Z,99.99
2017-06-17T06:35:50.949Z,99.99
2017-06-17T06:37:03.245Z,99.99
2017-06-17T06:38:16.016Z,99.99
2017-06-17T06:39:29.007Z,99.99
2017-06-17T06:40:41.376Z,99.99
2017-06-17T06:41:54.235Z,99.99
2017-06-17T06:43:06.601Z,99.99
2017-06-17T06:44:19.660Z,99.99
2017-06-17T06:45:32.516Z,99.99
2017-06-17T06:46:44.886Z,99.99
2017-06-17T06:47:57.260Z,99.99
2017-06-17T06:49:09.624Z,99.99
2017-06-17T06:50:22.187Z,99.99
2017-06-17T06:51:35.045Z,99.99
2017-06-17T06:52:47.894Z,99.99
2017-06-17T06:54:00.262Z,99.99
2017-06-17T06:55:12.833Z,99.99
2017-06-17T06:56:25.688Z,99.99
2017-06-17T06:57:38.544Z,99.99
2017-06-17T06:58:50.909Z,99.99
2017-06-17T07:00:03.277Z,99.99
2017-06-17T07:01:15.359Z,99.99
2017-06-17T07:02:27.760Z,99.99
2017-06-17T07:03:39.641Z,99.99
2017-06-17T07:04:52.012Z,99.99
2017-06-17T07:06:04.583Z,99.99
2017-06-17T07:07:17.439Z,99.99
2017-06-17T07:08:29.808Z,99.99
2017-06-17T07:09:42.663Z,99.99
2017-06-17T07:10:55.521Z,99.99
2017-06-17T07:12:08.376Z,99.99
2017-06-17T07:13:21.234Z,99.99
2017-06-17T07:14:34.089Z,99.99
2017-06-17T07:15:46.949Z,99.99
2017-06-17T07:16:59.805Z,99.99
2017-06-17T07:18:12.660Z,99.99
2017-06-17T07:19:25.043Z,99.99
2017-06-17T07:20:37.437Z,99.99
2017-06-17T07:21:50.321Z,99.99
2017-06-17T07:23:03.173Z,99.99
2017-06-17T07:24:15.540Z,99.99
2017-06-17T07:25:27.920Z,99.99
2017-06-17T07:26:40.285Z,99.99
2017-06-17T07:27:53.336Z,99.99
2017-06-17T07:29:06.190Z,99.99
2017-06-17T07:30:19.042Z,99.99
2017-06-17T07:31:30.441Z,99.99
2017-06-17T07:32:42.807Z,99.99
2017-06-17T07:33:55.862Z,99.99
2017-06-17T07:35:08.716Z,99.99
2017-06-17T07:36:20.595Z,99.99
2017-06-17T07:37:33.456Z,99.99
2017-06-17T07:38:46.312Z,99.99
2017-06-17T07:39:59.167Z,99.99
2017-06-17T07:41:12.022Z,99.99
2017-06-17T07:42:24.882Z,99.99
2017-06-17T07:43:37.248Z,99.99
2017-06-17T07:44:50.298Z,99.99
2017-06-17T07:46:02.664Z,99.99
2017-06-17T07:47:15.520Z,99.99
2017-06-17T07:48:28.375Z,99.99
2017-06-17T07:49:41.428Z,99.99
2017-06-17T07:50:54.288Z,99.99
2017-06-17T07:52:06.655Z,99.99
2017-06-17T07:53:19.026Z,99.99
2017-06-17T07:54:31.880Z,99.99
2017-06-17T07:55:44.244Z,99.99
2017-06-17T07:56:56.614Z,99.99
2017-06-17T07:58:08.986Z,99.99
2017-06-17T07:59:21.839Z,99.99
2017-06-17T08:00:34.892Z,99.99
2017-06-17T08:01:47.262Z,99.99
2017-06-17T08:02:59.626Z,99.99
2017-06-17T08:04:12.482Z,99.99
2017-06-17T08:05:25.339Z,99.99
2017-06-17T08:06:38.389Z,99.99
2017-06-17T08:07:51.244Z,99.99
2017-06-17T08:09:04.100Z,99.99
2017-06-17T08:10:16.959Z,99.99
2017-06-17T08:11:29.813Z,99.99
2017-06-17T08:12:42.667Z,99.99
2017-06-17T08:13:55.038Z,99.99
2017-06-17T08:15:07.887Z,99.99
2017-06-17T08:16:20.255Z,99.99
2017-06-17T08:17:33.108Z,99.99
2017-06-17T08:18:45.479Z,99.99
2017-06-17T08:19:57.822Z,99.99
2017-06-17T08:21:10.120Z,99.99
2017-06-17T08:22:23.095Z,99.99
2017-06-17T08:23:35.875Z,99.99
2017-06-17T08:24:48.674Z,99.99
2017-06-17T08:26:01.456Z,99.99
2017-06-17T08:27:14.226Z,99.99
2017-06-17T08:28:26.996Z,99.99
2017-06-17T08:29:39.287Z,99.99
2017-06-17T08:30:52.063Z,99.99
2017-06-17T08:32:04.837Z,99.99
2017-06-17T08:33:17.808Z,99.99
2017-06-17T08:34:30.581Z,99.99
2017-06-17T08:35:43.357Z,99.99
2017-06-17T08:36:56.130Z,99.99
2017-06-17T08:38:08.906Z,99.99
2017-06-17T08:39:21.875Z,99.99
2017-06-17T08:40:34.166Z,99.99
2017-06-17T08:41:47.047Z,99.99
2017-06-17T08:42:59.449Z,99.99
2017-06-17T08:44:26.395Z,99.99
2017-06-17T08:45:38.797Z,99.99
2017-06-17T08:46:51.212Z,99.99
2017-06-17T08:48:04.108Z,99.99
2017-06-17T08:49:16.995Z,99.99
2017-06-17T08:50:29.885Z,99.99
2017-06-17T08:51:42.780Z,99.99
2017-06-17T08:52:55.705Z,99.99
2017-06-17T08:54:08.688Z,99.99
2017-06-17T08:55:21.860Z,99.99
2017-06-17T08:56:34.832Z,99.99
2017-06-17T08:57:47.803Z,99.99
2017-06-17T08:59:00.283Z,99.99
2017-06-17T09:00:12.468Z,99.99
2017-06-17T09:01:25.446Z,99.99
2017-06-17T09:02:37.927Z,99.99
2017-06-17T09:03:50.907Z,99.99
2017-06-17T09:05:03.385Z,99.99
2017-06-17T09:06:15.865Z,99.99
2017-06-17T09:07:28.843Z,99.99
2017-06-17T09:08:41.815Z,99.99
2017-06-17T09:09:54.792Z,99.99
2017-06-17T09:11:07.980Z,99.99
2017-06-17T09:12:20.459Z,99.99
2017-06-17T09:13:32.937Z,99.99
2017-06-17T09:14:45.908Z,99.99
2017-06-17T09:15:57.891Z,99.99
2017-06-17T09:17:10.372Z,99.99
2017-06-17T09:18:23.345Z,99.99
2017-06-17T09:19:35.825Z,99.99
2017-06-17T09:20:48.798Z,99.99
2017-06-17T09:22:01.782Z,99.99
2017-06-17T09:23:14.758Z,99.99
2017-06-17T09:24:27.728Z,99.99
2017-06-17T09:25:40.209Z,99.99
2017-06-17T09:26:53.177Z,99.99
2017-06-17T09:28:06.088Z,99.99
2017-06-17T09:29:18.506Z,99.99
2017-06-17T09:30:30.923Z,99.99
2017-06-17T09:31:43.339Z,99.99
2017-06-17T09:32:56.453Z,99.99
2017-06-17T09:34:08.872Z,99.99
2017-06-17T09:35:21.295Z,99.99
2017-06-17T09:36:34.209Z,99.99
2017-06-17T09:37:47.118Z,99.99
2017-06-17T09:38:59.540Z,99.99
2017-06-17T09:40:12.451Z,99.99
2017-06-17T09:41:25.360Z,99.99
2017-06-17T09:42:38.271Z,99.99
2017-06-17T09:43:51.195Z,99.99
2017-06-17T09:45:03.613Z,99.99
2017-06-17T09:46:16.043Z,99.99
2017-06-17T09:47:28.954Z,99.99
2017-06-17T09:48:41.380Z,99.99
2017-06-17T09:49:54.294Z,99.99
2017-06-17T09:51:06.714Z,99.99
2017-06-17T09:52:18.158Z,99.99
2017-06-17T09:53:31.069Z,99.99
2017-06-17T09:54:44.179Z,99.99
2017-06-17T09:55:57.091Z,99.99
2017-06-17T09:57:09.023Z,99.99
2017-06-17T09:58:21.931Z,99.99
2017-06-17T09:59:34.842Z,99.99
2017-06-17T10:00:47.751Z,99.99
2017-06-17T10:02:00.173Z,99.99
2017-06-17T10:03:13.097Z,99.99
2017-06-17T10:04:26.007Z,99.99
2017-06-17T10:05:39.121Z,99.99
2017-06-17T10:06:52.029Z,99.99
2017-06-17T10:08:02.975Z,99.99
2017-06-17T10:09:15.393Z,99.99
2017-06-17T10:10:28.303Z,99.99
2017-06-17T10:11:41.213Z,99.99
2017-06-17T10:12:54.123Z,99.99
2017-06-17T10:14:07.039Z,99.99
2017-06-17T10:15:19.963Z,99.99
2017-06-17T10:16:32.584Z,99.99
2017-06-17T10:17:45.495Z,99.99
2017-06-17T10:18:58.406Z,99.99
2017-06-17T10:20:11.317Z,99.99
2017-06-17T10:21:23.735Z,99.99
2017-06-17T10:22:36.362Z,99.99
2017-06-17T10:23:49.273Z,99.99
2017-06-17T10:25:01.693Z,99.99
2017-06-17T10:26:14.113Z,99.99
2017-06-17T10:27:41.069Z,99.99
2017-06-17T10:28:53.977Z,99.99
2017-06-17T10:30:05.905Z,99.99
2017-06-17T10:31:18.324Z,99.99
2017-06-17T10:32:30.942Z,99.99
2017-06-17T10:33:42.875Z,99.99
2017-06-17T10:34:55.787Z,99.99
2017-06-17T10:36:08.206Z,99.99
2017-06-17T10:37:20.624Z,99.99
2017-06-17T10:38:32.756Z,99.99
2017-06-17T10:39:45.192Z,99.99
2017-06-17T10:40:58.103Z,99.99
2017-06-17T10:42:10.522Z,99.99
2017-06-17T10:43:23.439Z,99.99
2017-06-17T10:44:36.354Z,99.99
2017-06-17T10:45:49.265Z,99.99
2017-06-17T10:47:02.172Z,99.99
2017-06-17T10:48:15.086Z,99.99
2017-06-17T10:49:27.996Z,99.99
2017-06-17T10:50:40.418Z,99.99
2017-06-17T10:51:52.849Z,99.99
2017-06-17T10:53:05.760Z,99.99
2017-06-17T10:54:18.669Z,99.99
2017-06-17T10:55:30.601Z,99.99
2017-06-17T10:56:43.515Z,99.99
2017-06-17T10:57:55.933Z,99.99
2017-06-17T10:59:08.845Z,99.99
2017-06-17T11:00:21.955Z,99.99
2017-06-17T11:01:34.869Z,99.99
2017-06-17T11:02:47.290Z,99.99
2017-06-17T11:03:59.714Z,99.99
2017-06-17T11:05:12.132Z,99.99
2017-06-17T11:06:24.061Z,99.99
2017-06-17T11:07:36.972Z,99.99
2017-06-17T11:08:49.388Z,99.99
2017-06-17T11:10:02.298Z,99.99
2017-06-17T11:11:14.921Z,99.99
2017-06-17T11:12:27.836Z,99.99
2017-06-17T11:13:40.754Z,99.99
2017-06-17T11:14:53.668Z,99.99
2017-06-17T11:16:06.784Z,99.99
2017-06-17T11:17:19.208Z,99.99
2017-06-17T11:18:32.127Z,99.99
2017-06-17T11:19:45.038Z,99.99
2017-06-17T11:20:57.948Z,99.82
2017-06-17T11:22:10.569Z,99.99
2017-06-17T11:24:05.978Z,99.99
2017-06-17T11:25:17.822Z,99.99
2017-06-17T11:26:30.136Z,99.99
2017-06-17T11:27:42.950Z,99.99
2017-06-17T11:28:55.819Z,99.99
2017-06-17T11:30:08.690Z,99.99
2017-06-17T11:31:21.084Z,99.99
2017-06-17T11:32:33.617Z,99.99
2017-06-17T11:33:47.325Z,99.99
2017-06-17T11:35:00.854Z,99.99
2017-06-17T11:36:15.014Z,99.99
2017-06-17T11:37:28.972Z,99.99
2017-06-17T11:38:42.178Z,99.1
2017-06-17T11:39:56.611Z,98.91
2017-06-17T11:41:11.136Z,98.62
2017-06-17T11:42:24.799Z,98.77
2017-06-17T11:43:39.128Z,99.05
2017-06-17T11:44:53.241Z,98.77
2017-06-17T11:46:06.192Z,98.48
2017-06-17T11:47:19.686Z,98
2017-06-17T11:48:33.294Z,97.81
2017-06-17T11:49:46.062Z,97.52
2017-06-17T11:50:58.809Z,97.56
2017-06-17T11:52:12.430Z,97.38
2017-06-17T11:53:26.144Z,96.99
2017-06-17T11:54:41.020Z,96.89
2017-06-17T11:55:55.075Z,96.8
2017-06-17T11:57:09.063Z,96.89
2017-06-17T11:58:22.952Z,96.8
2017-06-17T11:59:36.622Z,95.79
2017-06-17T12:00:50.303Z,95.7
2017-06-17T12:02:03.260Z,94.93
2017-06-17T12:03:16.726Z,95.12
2017-06-17T12:04:30.316Z,94.54
2017-06-17T12:05:43.384Z,94.74
2017-06-17T12:06:56.300Z,95.12
2017-06-17T12:08:08.698Z,94.45
2017-06-17T12:09:21.088Z,93.92
2017-06-17T12:10:47.536Z,92.29
2017-06-17T12:11:59.923Z,91.9
2017-06-17T12:13:12.793Z,92.19
2017-06-17T12:14:25.672Z,94.69
2017-06-17T12:15:38.549Z,91.81
2017-06-17T12:16:51.426Z,90.94
2017-06-17T12:18:04.294Z,90.56
2017-06-17T12:19:16.672Z,93.05
2017-06-17T12:20:29.055Z,90.94
2017-06-17T12:21:41.902Z,89.02
2017-06-17T12:22:54.682Z,89.31
2017-06-17T12:24:06.583Z,89.64
2017-06-17T12:25:18.662Z,89.6
2017-06-17T12:26:31.491Z,89.45
2017-06-17T12:27:44.378Z,89.36
2017-06-17T12:28:56.673Z,90.03
2017-06-17T12:30:08.966Z,90.12
2017-06-17T12:31:21.257Z,89.83
2017-06-17T12:32:34.036Z,90.03
2017-06-17T12:33:46.814Z,89.36
2017-06-17T12:34:59.594Z,88.87
2017-06-17T12:36:11.891Z,88.49
2017-06-17T12:37:24.868Z,88.44
2017-06-17T12:38:37.163Z,87.67
2017-06-17T12:39:49.942Z,87.29
2017-06-17T12:41:02.726Z,86.22
2017-06-17T12:42:15.707Z,86.13
2017-06-17T12:43:28.003Z,86.42
2017-06-17T12:44:40.782Z,85.88
2017-06-17T12:45:53.082Z,85.88
2017-06-17T12:47:05.860Z,85.5
2017-06-17T12:48:18.836Z,84.06
2017-06-17T12:49:31.131Z,84.44
2017-06-17T12:50:43.914Z,84.73
2017-06-17T12:51:56.208Z,84.44
2017-06-17T12:53:08.986Z,84.06
2017-06-17T12:54:21.279Z,84.06
2017-06-17T12:55:33.579Z,83.42
2017-06-17T12:56:46.355Z,82.85
2017-06-17T12:57:58.654Z,82.46
2017-06-17T12:59:10.465Z,82.08
2017-06-17T13:00:22.763Z,81.98
2017-06-17T13:01:35.540Z,82.08
2017-06-17T13:02:48.317Z,81.79
2017-06-17T13:04:00.133Z,81.06
2017-06-17T13:05:12.909Z,80.87
2017-06-17T13:06:25.691Z,81.12
2017-06-17T13:07:37.986Z,81.16
2017-06-17T13:08:50.766Z,81.06
2017-06-17T13:10:03.551Z,80.29
2017-06-17T13:11:15.850Z,79.43
2017-06-17T13:12:28.627Z,79.81
2017-06-17T13:13:41.416Z,79.13
2017-06-17T13:14:54.215Z,78.94
2017-06-17T13:16:06.035Z,78.94
2017-06-17T13:17:17.367Z,79.08
2017-06-17T13:18:29.665Z,78.75
2017-06-17T13:19:42.442Z,79.08
2017-06-17T13:20:55.421Z,79.17
2017-06-17T13:22:07.725Z,79.13
2017-06-17T13:23:20.508Z,78.85
2017-06-17T13:24:33.285Z,79.08
2017-06-17T13:25:45.579Z,78.88
2017-06-17T13:26:58.075Z,77.92
2017-06-17T13:28:10.854Z,78.21
2017-06-17T13:29:22.673Z,77.59
2017-06-17T13:30:35.450Z,77.88
2017-06-17T13:31:47.945Z,77.5
2017-06-17T13:33:00.722Z,77.59
2017-06-17T13:34:13.499Z,77.5
2017-06-17T13:35:25.798Z,77.69
2017-06-17T13:36:38.092Z,78.03
2017-06-17T13:37:50.869Z,77.98
2017-06-17T13:39:03.646Z,77.88
2017-06-17T13:40:16.426Z,77.17
2017-06-17T13:41:28.722Z,77.46
2017-06-17T13:42:41.219Z,77.56
2017-06-17T13:43:54.000Z,77.59
2017-06-17T13:45:05.815Z,77.21
2017-06-17T13:46:18.594Z,77.5
2017-06-17T13:47:31.375Z,77.21
2017-06-17T13:48:44.152Z,77.01
2017-06-17T13:49:56.449Z,77.11
2017-06-17T13:51:08.749Z,77.5
2017-06-17T13:52:21.044Z,76.34
2017-06-17T13:53:34.026Z,76.34
2017-06-17T13:54:46.323Z,76.34
2017-06-17T13:55:58.618Z,76.25
2017-06-17T13:57:10.435Z,76.28
2017-06-17T13:58:23.217Z,75.71
2017-06-17T13:59:35.718Z,75.71
2017-06-17T14:00:48.495Z,74.65
2017-06-17T14:02:00.794Z,74.55
2017-06-17T14:03:13.092Z,74.93
2017-06-17T14:04:25.392Z,74.45
2017-06-17T14:05:37.688Z,74.1
2017-06-17T14:06:50.466Z,73.91
2017-06-17T14:08:02.760Z,72.85
2017-06-17T14:09:15.539Z,73.05
2017-06-17T14:10:28.346Z,73.05
2017-06-17T14:11:41.137Z,73.27
2017-06-17T14:12:53.920Z,72.31
2017-06-17T14:14:06.701Z,71.73
2017-06-17T14:15:18.999Z,70.86
2017-06-17T14:16:31.299Z,70.96
2017-06-17T14:17:44.079Z,71.25
2017-06-17T14:18:56.858Z,71.06
2017-06-17T14:20:09.643Z,70.86
2017-06-17T14:21:22.143Z,71.15
2017-06-17T14:22:34.924Z,71.19
2017-06-17T14:23:47.229Z,71
2017-06-17T14:24:59.046Z,71.09
2017-06-17T14:26:11.064Z,69.64
2017-06-17T14:27:23.364Z,69.07
2017-06-17T14:28:36.144Z,69.35
2017-06-17T14:29:48.441Z,69.45
2017-06-17T14:31:00.740Z,69.1
2017-06-17T14:32:13.721Z,69.2
2017-06-17T14:33:26.499Z,68.33
2017-06-17T14:34:38.317Z,67.94
2017-06-17T14:35:50.612Z,67.85
2017-06-17T14:37:02.913Z,67.75
2017-06-17T14:38:14.732Z,68.13
2017-06-17T14:39:27.027Z,68.13
2017-06-17T14:40:38.841Z,68.91
2017-06-17T14:41:51.143Z,69.49
2017-06-17T14:43:03.449Z,67.75
2017-06-17T14:44:16.237Z,68.13
2017-06-17T14:45:29.028Z,68.81
2017-06-17T14:46:41.335Z,68.81
2017-06-17T14:47:54.114Z,68.43
2017-06-17T14:49:06.422Z,67.85
2017-06-17T14:50:19.210Z,67.65
2017-06-17T14:51:31.996Z,68.04
2017-06-17T14:52:43.816Z,67.88
2017-06-17T14:53:56.794Z,67.78
2017-06-17T14:55:09.585Z,67.97
2017-06-17T14:56:21.886Z,67.85
2017-06-17T14:57:34.692Z,67.55
2017-06-17T14:58:47.000Z,67.75
2017-06-17T14:59:58.060Z,68.04
2017-06-17T15:01:09.885Z,67.07
2017-06-17T15:02:22.189Z,67.36
2017-06-17T15:03:34.980Z,67.17
2017-06-17T15:04:47.005Z,67.27
2017-06-17T15:05:59.791Z,67.85
2017-06-17T15:07:12.090Z,67.85
2017-06-17T15:08:24.871Z,67.75
2017-06-17T15:09:37.177Z,67.94
2017-06-17T15:10:50.177Z,68.23
2017-06-17T15:12:02.020Z,68.13
2017-06-17T15:13:13.366Z,67.75
2017-06-17T15:14:26.206Z,67.27
2017-06-17T15:15:38.715Z,67.07
2017-06-17T15:16:51.019Z,66.3
2017-06-17T15:18:03.797Z,66.97
2017-06-17T15:19:16.575Z,66.4
2017-06-17T15:20:28.883Z,66.14
2017-06-17T15:21:41.869Z,66.78
2017-06-17T15:22:54.650Z,66.63
2017-06-17T15:24:06.473Z,67.11
2017-06-17T15:25:18.294Z,67.11
2017-06-17T15:26:31.285Z,67.78
2017-06-17T15:27:43.585Z,66.14
2017-06-17T15:28:56.364Z,65.66
2017-06-17T15:30:08.664Z,65.75
2017-06-17T15:31:20.000Z,65.66
2017-06-17T15:32:32.504Z,64.53
2017-06-17T15:33:44.838Z,64.82
2017-06-17T15:34:57.268Z,64.53
2017-06-17T15:36:08.717Z,64.24
2017-06-17T15:37:21.836Z,65.11
2017-06-17T15:38:34.754Z,62.79